sensor_id;sensor_type;location;lat;lon;timestamp;temperature;humidity
61253;DHT22;47127;47.516;8.596;2022-12-07T00:01:18;4.30;99.90
61253;DHT22;47127;47.516;8.596;2022-12-07T00:03:43;4.20;99.90
61253;DHT22;47127;47.516;8.596;2022-12-07T00:06:10;4.20;99.90
61253;DHT22;47127;47.516;8.596;2022-12-07T00:08:35;4.20;99.90
61253;DHT22;47127;47.516;8.596;2022-12-07T00:11:02;4.20;99.90
61253;DHT22;47127;47.516;8.596;2022-12-07T00:13:28;4.20;99.90
61253;DHT22;47127;47.516;8.596;2022-12-07T00:15:53;4.20;99.90
61253;DHT22;47127;47.516;8.596;2022-12-07T00:18:18;4.20;99.90
61253;DHT22;47127;47.516;8.596;2022-12-07T00:20:44;4.20;99.90
61253;DHT22;47127;47.516;8.596;2022-12-07T00:23:09;4.20;99.90
61253;DHT22;47127;47.516;8.596;2022-12-07T00:25:35;4.20;99.90
61253;DHT22;47127;47.516;8.596;2022-12-07T00:28:00;4.20;99.90
61253;DHT22;47127;47.516;8.596;2022-12-07T00:30:25;4.20;99.90
61253;DHT22;47127;47.516;8.596;2022-12-07T00:32:51;4.30;99.90
61253;DHT22;47127;47.516;8.596;2022-12-07T00:35:16;4.30;99.90
61253;DHT22;47127;47.516;8.596;2022-12-07T00:37:42;4.20;99.90
61253;DHT22;47127;47.516;8.596;2022-12-07T00:40:07;4.20;99.90
61253;DHT22;47127;47.516;8.596;2022-12-07T00:42:33;4.30;99.90
61253;DHT22;47127;47.516;8.596;2022-12-07T00:44:58;4.20;99.90
61253;DHT22;47127;47.516;8.596;2022-12-07T00:47:24;4.20;99.90
61253;DHT22;47127;47.516;8.596;2022-12-07T00:49:49;4.30;99.90
61253;DHT22;47127;47.516;8.596;2022-12-07T00:52:15;4.30;99.90
61253;DHT22;47127;47.516;8.596;2022-12-07T00:54:40;4.30;99.90
61253;DHT22;47127;47.516;8.596;2022-12-07T00:57:05;4.30;99.90
61253;DHT22;47127;47.516;8.596;2022-12-07T00:59:31;4.30;99.90
61253;DHT22;47127;47.516;8.596;2022-12-07T01:01:57;4.30;99.90
61253;DHT22;47127;47.516;8.596;2022-12-07T01:04:22;4.30;99.90
61253;DHT22;47127;47.516;8.596;2022-12-07T01:06:47;4.40;99.90
61253;DHT22;47127;47.516;8.596;2022-12-07T01:09:13;4.40;99.90
61253;DHT22;47127;47.516;8.596;2022-12-07T01:11:38;4.40;99.90
61253;DHT22;47127;47.516;8.596;2022-12-07T01:14:04;4.40;99.90
61253;DHT22;47127;47.516;8.596;2022-12-07T01:16:30;4.40;99.90
61253;DHT22;47127;47.516;8.596;2022-12-07T01:18:56;4.40;99.90
61253;DHT22;47127;47.516;8.596;2022-12-07T01:23:47;4.40;99.90
61253;DHT22;47127;47.516;8.596;2022-12-07T01:26:14;4.30;99.90
61253;DHT22;47127;47.516;8.596;2022-12-07T01:28:40;4.20;99.90
61253;DHT22;47127;47.516;8.596;2022-12-07T01:31:07;4.30;99.90
61253;DHT22;47127;47.516;8.596;2022-12-07T01:33:34;4.30;99.90
61253;DHT22;47127;47.516;8.596;2022-12-07T01:36:07;4.20;99.90
61253;DHT22;47127;47.516;8.596;2022-12-07T01:38:33;4.30;99.90
61253;DHT22;47127;47.516;8.596;2022-12-07T01:40:59;4.30;99.90
61253;DHT22;47127;47.516;8.596;2022-12-07T01:43:25;4.40;99.90
61253;DHT22;47127;47.516;8.596;2022-12-07T01:45:51;4.50;99.90
61253;DHT22;47127;47.516;8.596;2022-12-07T01:48:18;4.60;99.90
61253;DHT22;47127;47.516;8.596;2022-12-07T01:50:45;4.50;99.90
61253;DHT22;47127;47.516;8.596;2022-12-07T01:53:12;4.60;99.90
61253;DHT22;47127;47.516;8.596;2022-12-07T01:55:39;4.50;99.90
61253;DHT22;47127;47.516;8.596;2022-12-07T01:58:05;4.50;99.90
61253;DHT22;47127;47.516;8.596;2022-12-07T02:00:31;4.50;99.90
61253;DHT22;47127;47.516;8.596;2022-12-07T02:03:00;4.40;99.90
61253;DHT22;47127;47.516;8.596;2022-12-07T02:05:26;4.40;99.90
61253;DHT22;47127;47.516;8.596;2022-12-07T02:07:53;4.40;99.90
61253;DHT22;47127;47.516;8.596;2022-12-07T02:10:24;4.40;99.90
61253;DHT22;47127;47.516;8.596;2022-12-07T02:12:54;4.50;99.90
61253;DHT22;47127;47.516;8.596;2022-12-07T02:15:21;4.40;99.90
61253;DHT22;47127;47.516;8.596;2022-12-07T02:20:30;4.40;99.90
61253;DHT22;47127;47.516;8.596;2022-12-07T02:30:52;4.40;99.90
61253;DHT22;47127;47.516;8.596;2022-12-07T02:33:37;4.50;99.90
61253;DHT22;47127;47.516;8.596;2022-12-07T02:36:13;4.60;99.90
61253;DHT22;47127;47.516;8.596;2022-12-07T02:41:10;4.60;99.90
61253;DHT22;47127;47.516;8.596;2022-12-07T02:43:57;4.60;99.90
61253;DHT22;47127;47.516;8.596;2022-12-07T02:46:25;4.60;99.90
61253;DHT22;47127;47.516;8.596;2022-12-07T02:48:51;4.60;99.90
61253;DHT22;47127;47.516;8.596;2022-12-07T02:51:17;4.60;99.90
61253;DHT22;47127;47.516;8.596;2022-12-07T02:53:43;4.60;99.90
61253;DHT22;47127;47.516;8.596;2022-12-07T02:56:20;4.60;99.90
61253;DHT22;47127;47.516;8.596;2022-12-07T03:01:37;4.60;99.90
61253;DHT22;47127;47.516;8.596;2022-12-07T03:04:13;4.60;99.90
61253;DHT22;47127;47.516;8.596;2022-12-07T03:06:48;4.60;99.90
61253;DHT22;47127;47.516;8.596;2022-12-07T03:09:19;4.60;99.90
61253;DHT22;47127;47.516;8.596;2022-12-07T03:11:50;4.60;99.90
61253;DHT22;47127;47.516;8.596;2022-12-07T03:14:25;4.50;99.90
61253;DHT22;47127;47.516;8.596;2022-12-07T03:16:55;4.50;99.90
61253;DHT22;47127;47.516;8.596;2022-12-07T03:19:22;4.50;99.90
61253;DHT22;47127;47.516;8.596;2022-12-07T03:21:53;4.50;99.90
61253;DHT22;47127;47.516;8.596;2022-12-07T03:24:21;4.50;99.90
61253;DHT22;47127;47.516;8.596;2022-12-07T03:29:49;4.60;99.90
61253;DHT22;47127;47.516;8.596;2022-12-07T03:32:20;4.50;99.90
61253;DHT22;47127;47.516;8.596;2022-12-07T03:37:22;4.50;99.90
61253;DHT22;47127;47.516;8.596;2022-12-07T03:42:22;4.40;99.90
61253;DHT22;47127;47.516;8.596;2022-12-07T03:44:48;4.50;99.90
61253;DHT22;47127;47.516;8.596;2022-12-07T03:47:23;4.60;99.90
61253;DHT22;47127;47.516;8.596;2022-12-07T03:49:56;4.60;99.90
61253;DHT22;47127;47.516;8.596;2022-12-07T03:52:30;4.50;99.90
61253;DHT22;47127;47.516;8.596;2022-12-07T03:57:26;4.40;99.90
61253;DHT22;47127;47.516;8.596;2022-12-07T03:59:53;4.40;99.90
61253;DHT22;47127;47.516;8.596;2022-12-07T04:02:19;4.40;99.90
61253;DHT22;47127;47.516;8.596;2022-12-07T04:04:45;4.50;99.90
61253;DHT22;47127;47.516;8.596;2022-12-07T04:07:10;4.50;99.90
61253;DHT22;47127;47.516;8.596;2022-12-07T04:09:36;4.60;99.90
61253;DHT22;47127;47.516;8.596;2022-12-07T04:12:01;4.60;99.90
61253;DHT22;47127;47.516;8.596;2022-12-07T04:14:27;4.60;99.90
61253;DHT22;47127;47.516;8.596;2022-12-07T04:16:56;4.60;99.90
61253;DHT22;47127;47.516;8.596;2022-12-07T04:19:23;4.60;99.90
61253;DHT22;47127;47.516;8.596;2022-12-07T04:21:49;4.60;99.90
61253;DHT22;47127;47.516;8.596;2022-12-07T04:24:14;4.60;99.90
61253;DHT22;47127;47.516;8.596;2022-12-07T04:26:40;4.50;99.90
61253;DHT22;47127;47.516;8.596;2022-12-07T04:29:06;4.50;99.90
61253;DHT22;47127;47.516;8.596;2022-12-07T04:31:32;4.60;99.90
61253;DHT22;47127;47.516;8.596;2022-12-07T04:33:57;4.60;99.90
61253;DHT22;47127;47.516;8.596;2022-12-07T04:36:23;4.60;99.90
61253;DHT22;47127;47.516;8.596;2022-12-07T04:38:48;4.60;99.90
61253;DHT22;47127;47.516;8.596;2022-12-07T04:41:14;4.60;99.90
61253;DHT22;47127;47.516;8.596;2022-12-07T04:43:39;4.60;99.90
61253;DHT22;47127;47.516;8.596;2022-12-07T04:46:05;4.60;99.90
61253;DHT22;47127;47.516;8.596;2022-12-07T04:48:30;4.60;99.90
61253;DHT22;47127;47.516;8.596;2022-12-07T04:50:56;4.60;99.90
61253;DHT22;47127;47.516;8.596;2022-12-07T04:53:21;4.60;99.90
61253;DHT22;47127;47.516;8.596;2022-12-07T04:55:47;4.60;99.90
61253;DHT22;47127;47.516;8.596;2022-12-07T04:58:12;4.60;99.90
61253;DHT22;47127;47.516;8.596;2022-12-07T05:00:38;4.60;99.90
61253;DHT22;47127;47.516;8.596;2022-12-07T05:03:04;4.50;99.90
61253;DHT22;47127;47.516;8.596;2022-12-07T05:05:29;4.50;99.90
61253;DHT22;47127;47.516;8.596;2022-12-07T05:07:55;4.50;99.90
61253;DHT22;47127;47.516;8.596;2022-12-07T05:10:20;4.60;99.90
61253;DHT22;47127;47.516;8.596;2022-12-07T05:12:46;4.60;99.90
61253;DHT22;47127;47.516;8.596;2022-12-07T05:15:13;4.60;99.90
61253;DHT22;47127;47.516;8.596;2022-12-07T05:17:38;4.70;99.90
61253;DHT22;47127;47.516;8.596;2022-12-07T05:20:04;4.70;99.90
61253;DHT22;47127;47.516;8.596;2022-12-07T05:22:29;4.70;99.90
61253;DHT22;47127;47.516;8.596;2022-12-07T05:24:55;4.70;99.90
61253;DHT22;47127;47.516;8.596;2022-12-07T05:27:20;4.70;99.90
61253;DHT22;47127;47.516;8.596;2022-12-07T05:29:46;4.60;99.90
61253;DHT22;47127;47.516;8.596;2022-12-07T05:32:11;4.60;99.90
61253;DHT22;47127;47.516;8.596;2022-12-07T05:34:37;4.60;99.90
61253;DHT22;47127;47.516;8.596;2022-12-07T05:37:02;4.60;99.90
61253;DHT22;47127;47.516;8.596;2022-12-07T05:39:28;4.60;99.90
61253;DHT22;47127;47.516;8.596;2022-12-07T05:41:53;4.50;99.90
61253;DHT22;47127;47.516;8.596;2022-12-07T05:44:37;4.50;99.90
61253;DHT22;47127;47.516;8.596;2022-12-07T05:47:02;4.50;99.90
61253;DHT22;47127;47.516;8.596;2022-12-07T05:49:28;4.60;99.90
61253;DHT22;47127;47.516;8.596;2022-12-07T05:51:53;4.60;99.90
61253;DHT22;47127;47.516;8.596;2022-12-07T05:54:19;4.50;99.90
61253;DHT22;47127;47.516;8.596;2022-12-07T05:56:44;4.60;99.90
61253;DHT22;47127;47.516;8.596;2022-12-07T05:59:10;4.60;99.90
61253;DHT22;47127;47.516;8.596;2022-12-07T06:04:16;4.50;99.90
61253;DHT22;47127;47.516;8.596;2022-12-07T06:06:42;4.50;99.90
61253;DHT22;47127;47.516;8.596;2022-12-07T06:09:08;4.50;99.90
61253;DHT22;47127;47.516;8.596;2022-12-07T06:11:33;4.50;99.90
61253;DHT22;47127;47.516;8.596;2022-12-07T06:14:17;4.50;99.90
61253;DHT22;47127;47.516;8.596;2022-12-07T06:16:43;4.40;99.90
61253;DHT22;47127;47.516;8.596;2022-12-07T06:19:08;4.40;99.90
61253;DHT22;47127;47.516;8.596;2022-12-07T06:21:34;4.50;99.90
61253;DHT22;47127;47.516;8.596;2022-12-07T06:23:59;4.40;99.90
61253;DHT22;47127;47.516;8.596;2022-12-07T06:26:25;4.40;99.90
61253;DHT22;47127;47.516;8.596;2022-12-07T06:28:50;4.40;99.90
61253;DHT22;47127;47.516;8.596;2022-12-07T06:31:16;4.40;99.90
61253;DHT22;47127;47.516;8.596;2022-12-07T06:33:41;4.40;99.90
61253;DHT22;47127;47.516;8.596;2022-12-07T06:36:07;4.40;99.90
61253;DHT22;47127;47.516;8.596;2022-12-07T06:38:32;4.40;99.90
61253;DHT22;47127;47.516;8.596;2022-12-07T06:40:58;4.40;99.90
61253;DHT22;47127;47.516;8.596;2022-12-07T06:43:23;4.40;99.90
61253;DHT22;47127;47.516;8.596;2022-12-07T06:45:49;4.40;99.90
61253;DHT22;47127;47.516;8.596;2022-12-07T06:48:17;4.40;99.90
61253;DHT22;47127;47.516;8.596;2022-12-07T06:50:45;4.40;99.90
61253;DHT22;47127;47.516;8.596;2022-12-07T06:53:11;4.40;99.90
61253;DHT22;47127;47.516;8.596;2022-12-07T06:55:36;4.40;99.90
61253;DHT22;47127;47.516;8.596;2022-12-07T06:58:02;4.40;99.90
61253;DHT22;47127;47.516;8.596;2022-12-07T07:00:27;4.50;99.90
61253;DHT22;47127;47.516;8.596;2022-12-07T07:02:53;4.50;99.90
61253;DHT22;47127;47.516;8.596;2022-12-07T07:05:18;4.50;99.90
61253;DHT22;47127;47.516;8.596;2022-12-07T07:07:46;4.40;99.90
61253;DHT22;47127;47.516;8.596;2022-12-07T07:10:13;4.40;99.90
61253;DHT22;47127;47.516;8.596;2022-12-07T07:12:38;4.50;99.90
61253;DHT22;47127;47.516;8.596;2022-12-07T07:15:04;4.50;99.90
61253;DHT22;47127;47.516;8.596;2022-12-07T07:17:29;4.50;99.90
61253;DHT22;47127;47.516;8.596;2022-12-07T07:19:55;4.50;99.90
61253;DHT22;47127;47.516;8.596;2022-12-07T07:22:20;4.50;99.90
61253;DHT22;47127;47.516;8.596;2022-12-07T07:24:46;4.40;99.90
61253;DHT22;47127;47.516;8.596;2022-12-07T07:27:11;4.40;99.90
61253;DHT22;47127;47.516;8.596;2022-12-07T07:29:36;4.40;99.90
61253;DHT22;47127;47.516;8.596;2022-12-07T07:32:02;4.40;99.90
61253;DHT22;47127;47.516;8.596;2022-12-07T07:34:27;4.40;99.90
61253;DHT22;47127;47.516;8.596;2022-12-07T07:36:53;4.40;99.90
61253;DHT22;47127;47.516;8.596;2022-12-07T07:39:18;4.40;99.90
61253;DHT22;47127;47.516;8.596;2022-12-07T07:41:44;4.40;99.90
61253;DHT22;47127;47.516;8.596;2022-12-07T07:44:09;4.50;99.90
61253;DHT22;47127;47.516;8.596;2022-12-07T07:46:35;4.50;99.90
61253;DHT22;47127;47.516;8.596;2022-12-07T07:49:00;4.50;99.90
61253;DHT22;47127;47.516;8.596;2022-12-07T07:51:26;4.60;99.90
61253;DHT22;47127;47.516;8.596;2022-12-07T07:53:51;4.50;99.90
61253;DHT22;47127;47.516;8.596;2022-12-07T07:56:17;4.50;99.90
61253;DHT22;47127;47.516;8.596;2022-12-07T07:58:42;4.50;99.90
61253;DHT22;47127;47.516;8.596;2022-12-07T08:01:08;4.40;99.90
61253;DHT22;47127;47.516;8.596;2022-12-07T08:03:33;4.50;99.90
61253;DHT22;47127;47.516;8.596;2022-12-07T08:06:04;4.50;99.90
61253;DHT22;47127;47.516;8.596;2022-12-07T08:08:29;4.50;99.90
61253;DHT22;47127;47.516;8.596;2022-12-07T08:10:55;4.50;99.90
61253;DHT22;47127;47.516;8.596;2022-12-07T08:13:20;4.50;99.90
61253;DHT22;47127;47.516;8.596;2022-12-07T08:15:46;4.40;99.90
61253;DHT22;47127;47.516;8.596;2022-12-07T08:18:12;4.40;99.90
61253;DHT22;47127;47.516;8.596;2022-12-07T08:20:38;4.40;99.90
61253;DHT22;47127;47.516;8.596;2022-12-07T08:23:04;4.40;99.90
61253;DHT22;47127;47.516;8.596;2022-12-07T08:25:30;4.40;99.90
61253;DHT22;47127;47.516;8.596;2022-12-07T08:27:56;4.50;99.90
61253;DHT22;47127;47.516;8.596;2022-12-07T08:30:22;4.40;99.90
61253;DHT22;47127;47.516;8.596;2022-12-07T08:32:48;4.50;99.90
61253;DHT22;47127;47.516;8.596;2022-12-07T08:35:13;4.60;99.90
61253;DHT22;47127;47.516;8.596;2022-12-07T08:37:39;4.60;99.90
61253;DHT22;47127;47.516;8.596;2022-12-07T08:40:06;4.60;99.90
61253;DHT22;47127;47.516;8.596;2022-12-07T08:42:32;4.60;99.90
61253;DHT22;47127;47.516;8.596;2022-12-07T08:45:04;4.60;99.90
61253;DHT22;47127;47.516;8.596;2022-12-07T08:47:30;4.70;99.90
61253;DHT22;47127;47.516;8.596;2022-12-07T08:49:56;4.70;99.90
61253;DHT22;47127;47.516;8.596;2022-12-07T08:52:21;4.80;99.90
61253;DHT22;47127;47.516;8.596;2022-12-07T08:54:47;4.80;99.90
61253;DHT22;47127;47.516;8.596;2022-12-07T08:57:13;4.80;99.90
61253;DHT22;47127;47.516;8.596;2022-12-07T08:59:38;4.80;99.90
61253;DHT22;47127;47.516;8.596;2022-12-07T09:02:04;4.80;99.90
61253;DHT22;47127;47.516;8.596;2022-12-07T09:04:30;4.80;99.90
61253;DHT22;47127;47.516;8.596;2022-12-07T09:06:55;4.80;99.90
61253;DHT22;47127;47.516;8.596;2022-12-07T09:09:21;4.80;99.90
61253;DHT22;47127;47.516;8.596;2022-12-07T09:11:46;4.80;99.90
61253;DHT22;47127;47.516;8.596;2022-12-07T09:14:12;4.70;99.90
61253;DHT22;47127;47.516;8.596;2022-12-07T09:16:38;4.80;99.90
61253;DHT22;47127;47.516;8.596;2022-12-07T09:19:03;4.80;99.90
61253;DHT22;47127;47.516;8.596;2022-12-07T09:21:29;4.80;99.90
61253;DHT22;47127;47.516;8.596;2022-12-07T09:23:54;4.90;99.90
61253;DHT22;47127;47.516;8.596;2022-12-07T09:26:20;4.90;99.90
61253;DHT22;47127;47.516;8.596;2022-12-07T09:28:45;4.90;99.90
61253;DHT22;47127;47.516;8.596;2022-12-07T09:31:10;4.90;99.90
61253;DHT22;47127;47.516;8.596;2022-12-07T09:33:36;4.90;99.90
61253;DHT22;47127;47.516;8.596;2022-12-07T09:36:02;4.90;99.90
61253;DHT22;47127;47.516;8.596;2022-12-07T09:38:28;4.90;99.90
61253;DHT22;47127;47.516;8.596;2022-12-07T09:40:56;4.90;99.90
61253;DHT22;47127;47.516;8.596;2022-12-07T09:43:22;4.90;99.90
61253;DHT22;47127;47.516;8.596;2022-12-07T09:45:52;5.00;99.90
61253;DHT22;47127;47.516;8.596;2022-12-07T09:48:21;4.90;99.90
61253;DHT22;47127;47.516;8.596;2022-12-07T09:50:47;5.00;99.90
61253;DHT22;47127;47.516;8.596;2022-12-07T09:53:15;5.00;99.90
61253;DHT22;47127;47.516;8.596;2022-12-07T09:55:41;5.10;99.90
61253;DHT22;47127;47.516;8.596;2022-12-07T09:58:13;5.00;99.90
61253;DHT22;47127;47.516;8.596;2022-12-07T10:00:42;5.00;99.90
61253;DHT22;47127;47.516;8.596;2022-12-07T10:03:07;5.00;99.90
61253;DHT22;47127;47.516;8.596;2022-12-07T10:05:34;5.10;99.90
61253;DHT22;47127;47.516;8.596;2022-12-07T10:08:02;5.10;99.90
61253;DHT22;47127;47.516;8.596;2022-12-07T10:10:31;5.20;99.90
61253;DHT22;47127;47.516;8.596;2022-12-07T10:13:08;5.10;99.90
61253;DHT22;47127;47.516;8.596;2022-12-07T10:15:50;5.10;99.90
61253;DHT22;47127;47.516;8.596;2022-12-07T10:18:18;5.20;99.90
61253;DHT22;47127;47.516;8.596;2022-12-07T10:20:46;5.20;99.90
61253;DHT22;47127;47.516;8.596;2022-12-07T10:23:15;5.30;99.90
61253;DHT22;47127;47.516;8.596;2022-12-07T10:25:41;5.30;99.90
61253;DHT22;47127;47.516;8.596;2022-12-07T10:30:33;5.20;99.90
61253;DHT22;47127;47.516;8.596;2022-12-07T10:36:22;5.40;99.90
61253;DHT22;47127;47.516;8.596;2022-12-07T10:39:30;5.40;99.90
61253;DHT22;47127;47.516;8.596;2022-12-07T10:41:49;5.50;99.90
61253;DHT22;47127;47.516;8.596;2022-12-07T10:44:21;5.60;99.90
61253;DHT22;47127;47.516;8.596;2022-12-07T10:47:34;5.50;99.90
61253;DHT22;47127;47.516;8.596;2022-12-07T10:54:50;5.60;99.90
61253;DHT22;47127;47.516;8.596;2022-12-07T10:57:40;5.60;99.90
61253;DHT22;47127;47.516;8.596;2022-12-07T11:00:09;5.60;99.90
61253;DHT22;47127;47.516;8.596;2022-12-07T11:08:03;5.70;99.90
61253;DHT22;47127;47.516;8.596;2022-12-07T11:10:39;5.70;99.90
61253;DHT22;47127;47.516;8.596;2022-12-07T11:13:16;5.80;99.90
61253;DHT22;47127;47.516;8.596;2022-12-07T11:21:00;5.90;99.90
61253;DHT22;47127;47.516;8.596;2022-12-07T11:23:45;5.90;99.90
61253;DHT22;47127;47.516;8.596;2022-12-07T11:31:41;6.00;99.90
61253;DHT22;47127;47.516;8.596;2022-12-07T11:36:41;5.80;99.90
61253;DHT22;47127;47.516;8.596;2022-12-07T11:39:19;5.80;99.90
61253;DHT22;47127;47.516;8.596;2022-12-07T11:41:47;5.70;99.90
61253;DHT22;47127;47.516;8.596;2022-12-07T11:44:25;5.70;99.90
61253;DHT22;47127;47.516;8.596;2022-12-07T11:46:54;5.90;99.90
61253;DHT22;47127;47.516;8.596;2022-12-07T11:51:47;6.00;99.90
61253;DHT22;47127;47.516;8.596;2022-12-07T11:54:15;6.10;99.90
61253;DHT22;47127;47.516;8.596;2022-12-07T11:56:43;6.00;99.90
61253;DHT22;47127;47.516;8.596;2022-12-07T11:59:11;6.00;99.90
61253;DHT22;47127;47.516;8.596;2022-12-07T12:06:29;6.20;99.90
61253;DHT22;47127;47.516;8.596;2022-12-07T12:19:42;6.30;99.90
61253;DHT22;47127;47.516;8.596;2022-12-07T12:22:14;6.30;99.90
61253;DHT22;47127;47.516;8.596;2022-12-07T12:24:40;6.40;99.90
61253;DHT22;47127;47.516;8.596;2022-12-07T12:27:08;6.40;99.90
61253;DHT22;47127;47.516;8.596;2022-12-07T12:29:39;6.40;99.90
61253;DHT22;47127;47.516;8.596;2022-12-07T12:32:16;6.40;99.90
61253;DHT22;47127;47.516;8.596;2022-12-07T12:42:49;6.60;99.90
61253;DHT22;47127;47.516;8.596;2022-12-07T12:45:26;6.50;99.90
61253;DHT22;47127;47.516;8.596;2022-12-07T12:50:21;6.50;99.90
61253;DHT22;47127;47.516;8.596;2022-12-07T12:53:12;6.50;99.90
61253;DHT22;47127;47.516;8.596;2022-12-07T13:00:45;6.40;99.90
61253;DHT22;47127;47.516;8.596;2022-12-07T13:06:16;6.40;99.90
61253;DHT22;47127;47.516;8.596;2022-12-07T13:08:42;6.40;99.90
61253;DHT22;47127;47.516;8.596;2022-12-07T13:11:17;6.30;99.90
61253;DHT22;47127;47.516;8.596;2022-12-07T13:13:43;6.40;99.90
61253;DHT22;47127;47.516;8.596;2022-12-07T13:18:37;6.40;99.90
61253;DHT22;47127;47.516;8.596;2022-12-07T13:28:36;6.50;99.90
61253;DHT22;47127;47.516;8.596;2022-12-07T13:31:11;6.70;99.90
61253;DHT22;47127;47.516;8.596;2022-12-07T13:33:38;6.60;99.90
61253;DHT22;47127;47.516;8.596;2022-12-07T13:36:04;6.60;99.90
61253;DHT22;47127;47.516;8.596;2022-12-07T13:38:31;6.60;99.90
61253;DHT22;47127;47.516;8.596;2022-12-07T13:41:00;6.60;99.90
61253;DHT22;47127;47.516;8.596;2022-12-07T13:43:27;6.50;99.90
61253;DHT22;47127;47.516;8.596;2022-12-07T13:45:56;6.50;99.90
61253;DHT22;47127;47.516;8.596;2022-12-07T13:50:56;6.50;99.90
61253;DHT22;47127;47.516;8.596;2022-12-07T13:53:22;6.40;99.90
61253;DHT22;47127;47.516;8.596;2022-12-07T13:55:48;6.40;99.90
61253;DHT22;47127;47.516;8.596;2022-12-07T13:58:14;6.40;99.90
61253;DHT22;47127;47.516;8.596;2022-12-07T14:00:39;6.40;99.90
61253;DHT22;47127;47.516;8.596;2022-12-07T14:05:37;6.30;99.90
61253;DHT22;47127;47.516;8.596;2022-12-07T14:08:24;6.40;99.90
61253;DHT22;47127;47.516;8.596;2022-12-07T14:15:53;6.40;99.90
61253;DHT22;47127;47.516;8.596;2022-12-07T14:18:28;6.30;99.90
61253;DHT22;47127;47.516;8.596;2022-12-07T14:23:34;6.30;99.90
61253;DHT22;47127;47.516;8.596;2022-12-07T14:26:07;6.30;99.90
61253;DHT22;47127;47.516;8.596;2022-12-07T14:28:34;6.30;99.90
61253;DHT22;47127;47.516;8.596;2022-12-07T14:31:00;6.30;99.90
61253;DHT22;47127;47.516;8.596;2022-12-07T14:33:26;6.30;99.90
61253;DHT22;47127;47.516;8.596;2022-12-07T14:35:52;6.30;99.90
61253;DHT22;47127;47.516;8.596;2022-12-07T14:38:21;6.20;99.90
61253;DHT22;47127;47.516;8.596;2022-12-07T14:40:47;6.20;99.90
61253;DHT22;47127;47.516;8.596;2022-12-07T14:43:13;6.20;99.90
61253;DHT22;47127;47.516;8.596;2022-12-07T14:45:40;6.30;99.90
61253;DHT22;47127;47.516;8.596;2022-12-07T14:48:07;6.20;99.90
61253;DHT22;47127;47.516;8.596;2022-12-07T14:50:35;6.20;99.90
61253;DHT22;47127;47.516;8.596;2022-12-07T14:53:02;6.10;99.90
61253;DHT22;47127;47.516;8.596;2022-12-07T14:55:30;6.00;99.90
61253;DHT22;47127;47.516;8.596;2022-12-07T14:57:56;5.90;99.90
61253;DHT22;47127;47.516;8.596;2022-12-07T15:00:22;5.90;99.90
61253;DHT22;47127;47.516;8.596;2022-12-07T15:02:48;5.90;99.90
61253;DHT22;47127;47.516;8.596;2022-12-07T15:05:13;5.90;99.90
61253;DHT22;47127;47.516;8.596;2022-12-07T15:07:39;5.80;99.90
61253;DHT22;47127;47.516;8.596;2022-12-07T15:10:05;5.80;99.90
61253;DHT22;47127;47.516;8.596;2022-12-07T15:12:31;5.80;99.90
61253;DHT22;47127;47.516;8.596;2022-12-07T15:14:56;5.80;99.90
61253;DHT22;47127;47.516;8.596;2022-12-07T15:17:22;5.70;99.90
61253;DHT22;47127;47.516;8.596;2022-12-07T15:19:47;5.70;99.90
61253;DHT22;47127;47.516;8.596;2022-12-07T15:22:13;5.70;99.90
61253;DHT22;47127;47.516;8.596;2022-12-07T15:24:38;5.70;99.90
61253;DHT22;47127;47.516;8.596;2022-12-07T15:27:04;5.70;99.90
61253;DHT22;47127;47.516;8.596;2022-12-07T15:29:29;5.70;99.90
61253;DHT22;47127;47.516;8.596;2022-12-07T15:31:55;5.70;99.90
61253;DHT22;47127;47.516;8.596;2022-12-07T15:34:20;5.70;99.90
61253;DHT22;47127;47.516;8.596;2022-12-07T15:36:46;5.60;99.90
61253;DHT22;47127;47.516;8.596;2022-12-07T15:39:11;5.60;99.90
61253;DHT22;47127;47.516;8.596;2022-12-07T15:41:37;5.60;99.90
61253;DHT22;47127;47.516;8.596;2022-12-07T15:44:02;5.50;99.90
61253;DHT22;47127;47.516;8.596;2022-12-07T15:46:46;5.40;99.90
61253;DHT22;47127;47.516;8.596;2022-12-07T15:49:13;5.40;99.90
61253;DHT22;47127;47.516;8.596;2022-12-07T15:51:39;5.40;99.90
61253;DHT22;47127;47.516;8.596;2022-12-07T15:54:04;5.40;99.90
61253;DHT22;47127;47.516;8.596;2022-12-07T15:56:30;5.30;99.90
61253;DHT22;47127;47.516;8.596;2022-12-07T15:58:56;5.30;99.90
61253;DHT22;47127;47.516;8.596;2022-12-07T16:01:21;5.20;99.90
61253;DHT22;47127;47.516;8.596;2022-12-07T16:03:47;5.20;99.90
61253;DHT22;47127;47.516;8.596;2022-12-07T16:06:14;5.10;99.90
61253;DHT22;47127;47.516;8.596;2022-12-07T16:08:43;5.00;99.90
61253;DHT22;47127;47.516;8.596;2022-12-07T16:11:09;4.90;99.90
61253;DHT22;47127;47.516;8.596;2022-12-07T16:13:35;4.90;99.90
61253;DHT22;47127;47.516;8.596;2022-12-07T16:16:04;4.80;99.90
61253;DHT22;47127;47.516;8.596;2022-12-07T16:18:30;4.90;99.90
61253;DHT22;47127;47.516;8.596;2022-12-07T16:20:55;4.90;99.90
61253;DHT22;47127;47.516;8.596;2022-12-07T16:23:20;4.80;99.90
61253;DHT22;47127;47.516;8.596;2022-12-07T16:25:46;4.60;99.90
61253;DHT22;47127;47.516;8.596;2022-12-07T16:28:11;4.60;99.90
61253;DHT22;47127;47.516;8.596;2022-12-07T16:30:37;4.60;99.90
61253;DHT22;47127;47.516;8.596;2022-12-07T16:33:02;4.60;99.90
61253;DHT22;47127;47.516;8.596;2022-12-07T16:35:28;4.60;99.90
61253;DHT22;47127;47.516;8.596;2022-12-07T16:37:53;4.60;99.90
61253;DHT22;47127;47.516;8.596;2022-12-07T16:40:19;4.50;99.90
61253;DHT22;47127;47.516;8.596;2022-12-07T16:42:44;4.40;99.90
61253;DHT22;47127;47.516;8.596;2022-12-07T16:45:10;4.30;99.90
61253;DHT22;47127;47.516;8.596;2022-12-07T16:47:39;4.20;99.90
61253;DHT22;47127;47.516;8.596;2022-12-07T16:50:05;4.10;99.90
61253;DHT22;47127;47.516;8.596;2022-12-07T16:52:30;4.00;99.90
61253;DHT22;47127;47.516;8.596;2022-12-07T16:54:56;3.90;99.90
61253;DHT22;47127;47.516;8.596;2022-12-07T16:57:21;3.80;99.90
61253;DHT22;47127;47.516;8.596;2022-12-07T16:59:47;3.80;99.90
61253;DHT22;47127;47.516;8.596;2022-12-07T17:02:12;3.90;99.90
61253;DHT22;47127;47.516;8.596;2022-12-07T17:04:38;3.90;99.90
61253;DHT22;47127;47.516;8.596;2022-12-07T17:07:05;3.80;99.90
61253;DHT22;47127;47.516;8.596;2022-12-07T17:09:30;3.60;99.90
61253;DHT22;47127;47.516;8.596;2022-12-07T17:11:56;3.50;99.90
61253;DHT22;47127;47.516;8.596;2022-12-07T17:14:21;3.50;99.90
61253;DHT22;47127;47.516;8.596;2022-12-07T17:17:05;3.30;99.90
61253;DHT22;47127;47.516;8.596;2022-12-07T17:19:31;3.30;99.90
61253;DHT22;47127;47.516;8.596;2022-12-07T17:21:56;3.10;99.90
61253;DHT22;47127;47.516;8.596;2022-12-07T17:24:22;3.00;99.90
61253;DHT22;47127;47.516;8.596;2022-12-07T17:26:47;3.00;99.90
61253;DHT22;47127;47.516;8.596;2022-12-07T17:29:13;3.00;99.90
61253;DHT22;47127;47.516;8.596;2022-12-07T17:31:39;2.90;99.90
61253;DHT22;47127;47.516;8.596;2022-12-07T17:34:08;3.00;99.90
61253;DHT22;47127;47.516;8.596;2022-12-07T17:36:35;2.90;99.90
61253;DHT22;47127;47.516;8.596;2022-12-07T17:39:00;2.90;99.90
61253;DHT22;47127;47.516;8.596;2022-12-07T17:41:28;2.80;99.90
61253;DHT22;47127;47.516;8.596;2022-12-07T17:44:14;2.80;99.90
61253;DHT22;47127;47.516;8.596;2022-12-07T17:46:39;2.80;99.90